Latest Coastal Weather Observations for Proserpine

IDQ60701

Issued at 5:12 am EST Sunday 25 June 2017 (issued every 10 minutes, with the page automatically refreshed every 10 minutes)

About coastal observations | Map of coastal stations | Coastal observations for QLD | Marine services | Other Formats
Station Details ID: 033247 Name: PROSERPINE AIRPORT Lat: -20.49 Lon: 148.56 Height: 19.7 m
Data from the previous 72 hours. | See also: Recent months at Proserpine
Date/Time
EST
Temp
°C
Wind Pressure Rain since
9am
mm
Weather Cloud Vis
km
Sea
Height
m
Swell
Dir  Spd
kts
Gust
kts
hPa Trend Height
m
Period
s
Dir
25/05:00am 13.7 SW 2 3 1016.8 - 0.0 - Cloudy 10 - - - -
25/04:30am 13.6 S 3 4 1016.6 - 0.0 - Cloudy 10 - - - -
25/04:00am 13.4 CALM 0 0 1017.0 - 0.0 - Cloudy 10 - - - -
25/03:30am 13.8 S 4 6 1017.1 - 0.0 - Cloudy 10 - - - -
25/03:00am 14.1 SSE 6 9 1017.1 - 0.0 - Cloudy 10 - - - -
25/02:30am 13.5 SSW 6 8 1017.6 - 0.0 - Cloudy 10 - - - -
25/02:00am 13.2 SSW 7 9 1017.9 - 0.0 - Cloudy 10 - - - -
25/01:30am 12.5 SW 4 5 1018.0 - 0.0 - Partly cloudy 10 - - - -
25/01:00am 12.3 SW 4 5 1018.0 - 0.0 - - 10 - - - -
25/12:30am 13.3 SW 4 4 1018.2 - 0.0 - Partly cloudy 10 - - - -
25/12:00am 13.6 SSE 1 5 1018.2 - 0.0 - - 10 - - - -
 
Date/Time
EST
Temp
°C
Wind Pressure Rain since
9am
mm
Weather Cloud Vis
km
Sea
Height
m
Swell
Dir  Spd
kts
Gust
kts
hPa Trend Height
m
Period
s
Dir
24/11:30pm 13.8 SSW 5 6 1018.3 - 0.0 - - 10 - - - -
24/11:00pm 14.3 SW 3 4 1018.4 - 0.0 - - 10 - - - -
24/10:30pm 14.2 SSW 7 8 1018.3 - 0.0 - - 10 - - - -
24/10:00pm 14.6 SSW 7 8 1018.4 - 0.0 - - 10 - - - -
24/09:30pm 15.3 SSW 3 4 1018.3 - 0.0 - - 10 - - - -
24/09:00pm 15.3 S 4 5 1018.2 - 0.0 - - 10 - - - -
24/08:30pm 15.6 SW 4 5 1018.0 - 0.0 - - 10 - - - -
24/08:00pm 15.8 S 5 6 1017.9 - 0.0 - - 10 - - - -
24/07:30pm 16.5 S 6 8 1017.7 - 0.0 - - 10 - - - -
24/07:00pm 16.7 S 5 6 1017.5 - 0.0 - - 10 - - - -
24/06:30pm 17.2 ESE 6 8 1017.1 - 0.0 - - 10 - - - -
24/06:00pm 18.9 E 5 8 1017.0 - 0.0 - - 10 - - - -
24/05:30pm 20.4 ESE 3 4 1016.6 - 0.0 - - 10 - - - -
24/05:00pm 21.7 ESE 9 12 1016.3 - 0.0 - - 10 - - - -
24/04:30pm 22.8 E 11 14 1016.0 - 0.0 - - 10 - - - -
24/04:00pm 23.7 E 10 13 1016.1 - 0.0 - Partly cloudy 10 - - - -
24/03:30pm 24.1 E 12 16 1016.1 - 0.0 - - 10 - - - -
24/03:00pm 24.3 E 11 15 1016.2 - 0.0 - Mostly cloudy 10 - - - -
24/02:30pm 24.2 E 10 13 1016.4 - 0.0 - Cloudy 10 - - - -
24/02:00pm 25.6 SE 9 13 1016.3 - 0.0 - Partly cloudy 10 - - - -
24/01:30pm 25.5 ESE 9 12 1016.5 - 0.0 - Partly cloudy 10 - - - -
24/01:00pm 24.8 SE 10 13 1016.6 - 0.0 - Cloudy 10 - - - -
24/12:30pm 24.4 SE 12 16 1017.1 - 0.0 - Cloudy 10 - - - -
24/12:00pm 24.6 ESE 13 18 1017.6 - 0.0 - Cloudy 10 - - - -
24/11:30am 24.0 ESE 12 16 1018.0 - 0.0 - Cloudy 10 - - - -
24/11:00am 23.8 SE 11 14 1018.2 - 0.0 - Cloudy 10 - - - -
24/10:30am 23.1 SE 10 14 1018.2 - 0.0 - Cloudy 10 - - - -
24/10:00am 22.2 S 5 7 1018.4 - 0.0 - Cloudy 10 - - - -
24/09:30am 20.4 SSW 5 7 1018.5 - 0.0 - Cloudy 10 - - - -
24/09:00am 18.9 ENE 2 4 1018.8 - 0.0 - Mostly cloudy 10 - - - -
24/08:30am 17.6 NNE 1 4 1018.4 - 0.0 - Cloudy 10 - - - -
24/08:00am 16.6 CALM 0 0 1017.9 - 0.0 - Cloudy 10 - - - -
24/07:30am 15.9 SSE 3 5 1017.7 - 0.0 - Cloudy 10 - - - -
24/07:00am 14.9 SSW 5 6 1017.4 - 0.0 - Partly cloudy 10 - - - -
24/06:30am 13.8 SSW 4 6 1017.1 - 0.0 - - 10 - - - -
24/06:00am 14.0 SSW 5 5 1016.8 - 0.0 - - 10 - - - -
24/05:30am 14.8 SSW 8 9 1016.5 - 0.0 - - 10 - - - -
24/05:00am 15.0 SSW 7 8 1016.4 - 0.0 - - 10 - - - -
24/04:30am 15.5 SSW 5 7 1016.6 - 0.0 - Partly cloudy 10 - - - -
24/04:00am 15.8 WSW 3 4 1016.7 - 0.0 - Partly cloudy 10 - - - -
24/03:30am 16.6 NW 1 3 1016.9 - 0.0 - Cloudy 10 - - - -
24/03:00am 16.8 SSW 5 7 1017.1 - 0.0 - Cloudy 10 - - - -
24/02:30am 17.1 WNW 4 4 1017.6 - 0.0 - Cloudy 10 - - - -
24/02:00am 17.0 WNW 3 5 1017.8 - 0.0 - Cloudy 10 - - - -
24/01:30am 17.6 S 5 6 1018.1 - 0.0 - Cloudy 10 - - - -
24/01:00am 17.1 S 7 8 1018.2 - 0.0 - Cloudy 10 - - - -
24/12:30am 17.5 SSE 7 7 1018.7 - 0.0 - Partly cloudy 10 - - - -
24/12:00am 16.2 SSW 3 4 1018.9 - 0.0 - Mostly cloudy 10 - - - -
 
Date/Time
EST
Temp
°C
Wind Pressure Rain since
9am
mm
Weather Cloud Vis
km
Sea
Height
m
Swell
Dir  Spd
kts
Gust
kts
hPa Trend Height
m
Period
s
Dir
23/11:30pm 17.3 S 6 8 1019.0 - 0.0 - Partly cloudy 10 - - - -
23/11:00pm 16.2 SSW 5 7 1019.3 - 0.0 - Partly cloudy 10 - - - -
23/10:30pm 16.6 S 5 7 1019.5 - 0.0 - Partly cloudy 10 - - - -
23/10:00pm 18.2 SSE 8 10 1019.7 - 0.0 - - 10 - - - -
23/09:30pm 17.1 S 6 7 1019.7 - 0.0 - Partly cloudy 10 - - - -
23/09:00pm 17.3 SW 6 7 1019.6 - 0.0 - Mostly cloudy 10 - - - -
23/08:30pm 17.2 SSW 5 7 1019.3 - 0.0 - Partly cloudy 10 - - - -
23/08:00pm 18.0 SSE 6 8 1019.1 - 0.0 - - 10 - - - -
23/07:30pm 18.5 S 6 9 1018.9 - 0.0 - Partly cloudy 10 - - - -
23/07:00pm 17.9 SE 5 7 1018.7 - 0.0 - Partly cloudy 10 - - - -
23/06:30pm 18.4 SE 6 7 1018.4 - 0.0 - Partly cloudy 10 - - - -
23/06:00pm 19.3 SE 5 6 1018.1 - 0.0 - Mostly cloudy 10 - - - -
23/05:30pm 20.5 ESE 6 8 1018.1 - 0.0 - Partly cloudy 10 - - - -
23/05:00pm 21.7 ESE 8 10 1017.9 - 0.0 - - 10 - - - -
23/04:30pm 22.8 ESE 9 12 1017.8 - 0.0 - - 10 - - - -
23/04:00pm 23.4 ESE 10 13 1017.6 - 0.0 - - 10 - - - -
23/03:30pm 23.5 ESE 12 15 1017.6 - 0.0 - Partly cloudy 10 - - - -
23/03:00pm 23.1 ESE 11 15 1017.7 - 0.0 - Cloudy 10 - - - -
23/02:30pm 23.2 ESE 12 17 1017.7 - 0.0 - Cloudy 10 - - - -
23/02:00pm 23.1 ESE 11 15 1017.8 - 0.0 - Cloudy 10 - - - -
23/01:30pm 23.6 ESE 14 18 1018.0 - 0.0 - Partly cloudy 10 - - - -
23/01:00pm 23.6 ESE 14 18 1018.5 - 0.0 - Partly cloudy 10 - - - -
23/12:30pm 24.3 ESE 13 18 1019.0 - 0.0 - Partly cloudy 10 - - - -
23/12:00pm 24.5 ESE 13 19 1019.5 - 0.0 - Cloudy 10 - - - -
23/11:30am 24.1 ESE 14 18 1020.0 - 0.0 - Partly cloudy 10 - - - -
23/11:00am 24.3 SE 13 17 1020.3 - 0.0 - Partly cloudy 10 - - - -
23/10:30am 23.6 ESE 14 19 1020.5 - 0.0 - - 10 - - - -
23/10:00am 23.1 SSE 12 15 1020.6 - 0.0 - Partly cloudy 10 - - - -
23/09:30am 22.4 SSE 10 13 1020.6 - 0.0 - - 10 - - - -
23/09:00am 21.1 SSE 8 12 1020.7 - 0.0 - Mostly clear 10 - - - -
23/08:30am 19.1 S 4 5 1020.7 - 0.0 - - 10 - - - -
23/08:00am 17.8 S 4 6 1020.5 - 0.0 - - 10 - - - -
23/07:30am 15.4 SSW 5 6 1020.3 - 0.0 - - 10 - - - -
23/07:00am 13.7 S 5 6 1020.1 - 0.0 - Partly cloudy 10 - - - -
23/06:30am 12.5 WSW 3 5 1019.8 - 0.0 - Partly cloudy 10 - - - -
23/06:00am 13.4 WSW 2 5 1019.5 - 0.0 - Partly cloudy 10 - - - -
23/05:30am 12.8 SW 3 4 1019.4 - 0.0 - - 10 - - - -
23/05:00am 14.0 CALM 0 0 1019.4 - 0.0 - Partly cloudy 10 - - - -
23/04:30am 14.3 CALM 0 0 1019.2 - 0.0 - Partly cloudy 10 - - - -
23/04:00am 15.7 CALM 0 0 1019.2 - 0.0 - Partly cloudy 10 - - - -
23/03:30am 16.0 SW 5 6 1019.3 - 0.0 - Partly cloudy 10 - - - -
23/03:00am 15.4 SSW 3 4 1019.6 - 0.0 - Cloudy 10 - - - -
23/02:30am 14.7 CALM 0 0 1019.8 - 0.0 - Partly cloudy 10 - - - -
23/02:00am 15.0 CALM 0 0 1020.0 - 0.0 - Partly cloudy 10 - - - -
23/01:30am 14.7 SSW 5 6 1020.3 - 0.0 - Partly cloudy 10 - - - -
23/01:00am 14.2 CALM 0 0 1020.6 - 0.0 - Partly cloudy 10 - - - -
23/12:30am 13.9 CALM 0 0 1020.8 - 0.0 - Partly cloudy 10 - - - -
23/12:00am 13.3 SSW 6 8 1020.9 - 0.0 - Partly cloudy 10 - - - -
 
Date/Time
EST
Temp
°C
Wind Pressure Rain since
9am
mm
Weather Cloud Vis
km
Sea
Height
m
Swell
Dir  Spd
kts
Gust
kts
hPa Trend Height
m
Period
s
Dir
22/11:30pm 12.9 SW 6 7 1021.1 - 0.0 - Partly cloudy 10 - - - -
22/11:00pm 13.1 SSW 7 8 1021.5 - 0.0 - Partly cloudy 10 - - - -
22/10:30pm 12.6 SW 5 6 1021.7 - 0.0 - - 10 - - - -
22/10:00pm 12.4 SW 4 5 1021.9 - 0.0 - - 10 - - - -
22/09:30pm 13.9 WSW 3 4 1022.0 - 0.0 - - 10 - - - -
22/09:00pm 13.8 CALM 0 0 1022.0 - 0.0 - - 10 - - - -
22/08:30pm 14.7 CALM 0 3 1021.8 - 0.0 - - 10 - - - -
22/08:00pm 15.1 S 3 4 1021.6 - 0.0 - - 10 - - - -
22/07:30pm 16.2 E 4 5 1021.3 - 0.0 - - 10 - - - -
22/07:00pm 15.7 E 5 6 1021.0 - 0.0 - - 10 - - - -
22/06:30pm 17.8 SE 5 7 1020.6 - 0.0 - - 10 - - - -
22/06:00pm 18.3 ESE 5 6 1020.4 - 0.0 - - 10 - - - -
22/05:30pm 19.7 ESE 7 10 1020.2 - 0.0 - Partly cloudy 10 - - - -
22/05:00pm 21.3 ESE 9 13 1019.9 - 0.0 - - 10 - - - -
22/04:30pm 22.3 ESE 13 17 1019.8 - 0.0 - - 10 - - - -
22/04:00pm 22.8 ESE 14 18 1019.6 - 0.0 - - 10 - - - -
22/03:30pm 23.3 ESE 15 20 1019.5 - 0.0 - - 10 - - - -
22/03:00pm 23.0 ESE 15 22 1019.5 - 0.0 - - 10 - - - -
22/02:30pm 23.6 ESE 15 20 1019.7 - 0.0 - - 10 - - - -
22/02:00pm 23.3 ESE 15 20 1020.1 - 0.0 - - 10 - - - -
22/01:30pm 24.2 ESE 15 21 1020.4 - 0.0 - Partly cloudy 10 - - - -
22/01:00pm 24.0 ESE 17 24 1020.7 - 0.0 - - 10 - - - -
22/12:30pm 23.6 ESE 15 22 1021.1 - 0.0 - Partly cloudy 10 - - - -
22/12:00pm 23.5 ESE 15 19 1021.6 - 0.0 - Mostly clear 10 - - - -
22/11:30am 24.0 SE 15 21 1022.0 - 0.0 - Partly cloudy 10 - - - -
22/11:00am 24.2 SE 16 21 1022.3 - 0.0 - Partly cloudy 10 - - - -
22/10:30am 23.1 ESE 16 21 1022.4 - 0.0 - - 10 - - - -
22/10:00am 23.2 SE 16 23 1022.5 - 0.0 - - 10 - - - -
22/09:30am 22.1 SE 13 18 1022.7 - 0.0 - - 10 - - - -
22/09:00am 20.4 SE 7 9 1022.5 - 0.0 - - 10 - - - -
22/08:30am 18.5 SSE 6 9 1022.2 - 0.0 - - 10 - - - -
22/08:00am 15.9 SSW 4 6 1021.9 - 0.0 - - 10 - - - -
22/07:30am 13.3 SW 4 5 1021.8 - 0.0 - Partly cloudy 10 - - - -
22/07:00am 10.4 CALM 0 0 1021.6 - 0.0 - Partly cloudy 10 - - - -
22/06:30am 10.3 CALM 0 0 1021.3 - 0.0 - - 10 - - - -
22/06:00am 10.0 N 3 4 1021.1 - 0.0 - - 10 - - - -
22/05:30am 10.3 CALM 0 3 1020.7 - 0.0 - - 10 - - - -

Other Formats:

Comma delimited format used in spreadsheet applications
http://www.bom.gov.au/fwo/IDQ60701/IDQ60701.94365.axf

JavaScript Object Notation format (JSON) in row-major order
http://www.bom.gov.au/fwo/IDQ60701/IDQ60701.94365.json